sensor_id;sensor_type;location;lat;lon;timestamp;temperature;humidity
37702;DHT22;23548;51.196;6.838;2023-04-09T00:00:02;8.70;99.90
37702;DHT22;23548;51.196;6.838;2023-04-09T00:02:28;8.60;99.90
37702;DHT22;23548;51.196;6.838;2023-04-09T00:04:54;8.60;99.90
37702;DHT22;23548;51.196;6.838;2023-04-09T00:07:20;8.50;99.90
37702;DHT22;23548;51.196;6.838;2023-04-09T00:09:46;8.30;99.90
37702;DHT22;23548;51.196;6.838;2023-04-09T00:12:11;8.20;99.90
37702;DHT22;23548;51.196;6.838;2023-04-09T00:14:37;8.10;99.90
37702;DHT22;23548;51.196;6.838;2023-04-09T00:17:03;8.10;99.90
37702;DHT22;23548;51.196;6.838;2023-04-09T00:19:29;8.00;99.90
37702;DHT22;23548;51.196;6.838;2023-04-09T00:21:54;7.90;99.90
37702;DHT22;23548;51.196;6.838;2023-04-09T00:24:20;7.80;99.90
37702;DHT22;23548;51.196;6.838;2023-04-09T00:26:46;7.80;99.90
37702;DHT22;23548;51.196;6.838;2023-04-09T00:29:12;7.70;99.90
37702;DHT22;23548;51.196;6.838;2023-04-09T00:31:37;7.60;99.90
37702;DHT22;23548;51.196;6.838;2023-04-09T00:34:03;7.50;99.90
37702;DHT22;23548;51.196;6.838;2023-04-09T00:36:29;7.50;99.90
37702;DHT22;23548;51.196;6.838;2023-04-09T00:38:55;7.40;99.90
37702;DHT22;23548;51.196;6.838;2023-04-09T00:41:21;7.30;99.90
37702;DHT22;23548;51.196;6.838;2023-04-09T00:43:47;7.30;99.90
37702;DHT22;23548;51.196;6.838;2023-04-09T00:46:13;7.20;99.90
37702;DHT22;23548;51.196;6.838;2023-04-09T00:48:39;7.10;99.90
37702;DHT22;23548;51.196;6.838;2023-04-09T00:51:07;7.00;99.90
37702;DHT22;23548;51.196;6.838;2023-04-09T00:53:32;6.90;99.90
37702;DHT22;23548;51.196;6.838;2023-04-09T00:55:58;6.90;99.90
37702;DHT22;23548;51.196;6.838;2023-04-09T00:58:24;6.80;99.90
37702;DHT22;23548;51.196;6.838;2023-04-09T01:00:50;6.80;99.90
37702;DHT22;23548;51.196;6.838;2023-04-09T01:03:16;6.70;99.90
37702;DHT22;23548;51.196;6.838;2023-04-09T01:06:21;6.60;99.90
37702;DHT22;23548;51.196;6.838;2023-04-09T01:17:23;6.40;99.90
37702;DHT22;23548;51.196;6.838;2023-04-09T01:30:39;6.20;99.90
37702;DHT22;23548;51.196;6.838;2023-04-09T01:33:08;6.20;99.90
37702;DHT22;23548;51.196;6.838;2023-04-09T01:35:35;6.20;99.90
37702;DHT22;23548;51.196;6.838;2023-04-09T01:38:01;6.20;99.90
37702;DHT22;23548;51.196;6.838;2023-04-09T01:40:28;6.20;99.90
37702;DHT22;23548;51.196;6.838;2023-04-09T01:42:55;6.30;99.90
37702;DHT22;23548;51.196;6.838;2023-04-09T01:45:22;6.40;99.90
37702;DHT22;23548;51.196;6.838;2023-04-09T01:47:48;6.40;99.90
37702;DHT22;23548;51.196;6.838;2023-04-09T01:50:14;6.50;99.90
37702;DHT22;23548;51.196;6.838;2023-04-09T01:52:41;6.50;99.90
37702;DHT22;23548;51.196;6.838;2023-04-09T01:55:07;6.50;99.90
37702;DHT22;23548;51.196;6.838;2023-04-09T01:57:32;6.50;99.90
37702;DHT22;23548;51.196;6.838;2023-04-09T01:59:58;6.50;99.90
37702;DHT22;23548;51.196;6.838;2023-04-09T02:02:41;6.60;99.90
37702;DHT22;23548;51.196;6.838;2023-04-09T02:05:11;6.70;99.90
37702;DHT22;23548;51.196;6.838;2023-04-09T02:07:44;6.70;99.90
37702;DHT22;23548;51.196;6.838;2023-04-09T02:10:12;6.70;99.90
37702;DHT22;23548;51.196;6.838;2023-04-09T02:12:44;6.70;99.90
37702;DHT22;23548;51.196;6.838;2023-04-09T02:15:11;6.70;99.90
37702;DHT22;23548;51.196;6.838;2023-04-09T02:17:38;6.70;99.90
37702;DHT22;23548;51.196;6.838;2023-04-09T02:20:04;6.70;99.90
37702;DHT22;23548;51.196;6.838;2023-04-09T02:22:30;6.70;99.90
37702;DHT22;23548;51.196;6.838;2023-04-09T02:24:56;6.70;99.90
37702;DHT22;23548;51.196;6.838;2023-04-09T02:27:22;6.60;99.90
37702;DHT22;23548;51.196;6.838;2023-04-09T02:29:47;6.60;99.90
37702;DHT22;23548;51.196;6.838;2023-04-09T02:32:13;6.50;99.90
37702;DHT22;23548;51.196;6.838;2023-04-09T02:34:39;6.50;99.90
37702;DHT22;23548;51.196;6.838;2023-04-09T02:37:05;6.50;99.90
37702;DHT22;23548;51.196;6.838;2023-04-09T02:39:30;6.50;99.90
37702;DHT22;23548;51.196;6.838;2023-04-09T02:41:56;6.40;99.90
37702;DHT22;23548;51.196;6.838;2023-04-09T02:44:22;6.40;99.90
37702;DHT22;23548;51.196;6.838;2023-04-09T02:46:49;6.30;99.90
37702;DHT22;23548;51.196;6.838;2023-04-09T02:49:15;6.30;99.90
37702;DHT22;23548;51.196;6.838;2023-04-09T02:51:42;6.20;99.90
37702;DHT22;23548;51.196;6.838;2023-04-09T02:54:07;6.20;99.90
37702;DHT22;23548;51.196;6.838;2023-04-09T02:56:33;6.10;99.90
37702;DHT22;23548;51.196;6.838;2023-04-09T02:58:59;6.00;99.90
37702;DHT22;23548;51.196;6.838;2023-04-09T03:01:24;6.10;99.90
37702;DHT22;23548;51.196;6.838;2023-04-09T03:03:50;6.00;99.90
37702;DHT22;23548;51.196;6.838;2023-04-09T03:06:16;6.00;99.90
37702;DHT22;23548;51.196;6.838;2023-04-09T03:08:43;6.00;99.90
37702;DHT22;23548;51.196;6.838;2023-04-09T03:11:08;6.00;99.90
37702;DHT22;23548;51.196;6.838;2023-04-09T03:13:34;6.00;99.90
37702;DHT22;23548;51.196;6.838;2023-04-09T03:16:00;5.90;99.90
37702;DHT22;23548;51.196;6.838;2023-04-09T03:18:28;5.90;99.90
37702;DHT22;23548;51.196;6.838;2023-04-09T03:20:54;5.80;99.90
37702;DHT22;23548;51.196;6.838;2023-04-09T03:23:20;5.80;99.90
37702;DHT22;23548;51.196;6.838;2023-04-09T03:25:45;5.70;99.90
37702;DHT22;23548;51.196;6.838;2023-04-09T03:28:11;5.70;99.90
37702;DHT22;23548;51.196;6.838;2023-04-09T03:30:37;5.70;99.90
37702;DHT22;23548;51.196;6.838;2023-04-09T03:33:03;5.70;99.90
37702;DHT22;23548;51.196;6.838;2023-04-09T03:35:28;5.60;99.90
37702;DHT22;23548;51.196;6.838;2023-04-09T03:37:54;5.60;99.90
37702;DHT22;23548;51.196;6.838;2023-04-09T03:40:20;5.60;99.90
37702;DHT22;23548;51.196;6.838;2023-04-09T03:42:45;5.60;99.90
37702;DHT22;23548;51.196;6.838;2023-04-09T03:45:11;5.60;99.90
37702;DHT22;23548;51.196;6.838;2023-04-09T03:47:37;5.60;99.90
37702;DHT22;23548;51.196;6.838;2023-04-09T03:50:03;5.60;99.90
37702;DHT22;23548;51.196;6.838;2023-04-09T03:52:29;5.50;99.90
37702;DHT22;23548;51.196;6.838;2023-04-09T03:54:55;5.50;99.90
37702;DHT22;23548;51.196;6.838;2023-04-09T03:57:20;5.50;99.90
37702;DHT22;23548;51.196;6.838;2023-04-09T03:59:46;5.50;99.90
37702;DHT22;23548;51.196;6.838;2023-04-09T04:02:12;5.40;99.90
37702;DHT22;23548;51.196;6.838;2023-04-09T04:04:38;5.40;99.90
37702;DHT22;23548;51.196;6.838;2023-04-09T04:07:04;5.40;99.90
37702;DHT22;23548;51.196;6.838;2023-04-09T04:09:29;5.30;99.90
37702;DHT22;23548;51.196;6.838;2023-04-09T04:11:55;5.30;99.90
37702;DHT22;23548;51.196;6.838;2023-04-09T04:14:23;5.80;99.90
37702;DHT22;23548;51.196;6.838;2023-04-09T04:16:49;5.20;99.90
37702;DHT22;23548;51.196;6.838;2023-04-09T04:19:14;5.20;99.90
37702;DHT22;23548;51.196;6.838;2023-04-09T04:21:40;5.20;99.90
37702;DHT22;23548;51.196;6.838;2023-04-09T04:24:06;5.20;99.90
37702;DHT22;23548;51.196;6.838;2023-04-09T04:26:32;5.20;99.90
37702;DHT22;23548;51.196;6.838;2023-04-09T04:28:58;5.10;99.90
37702;DHT22;23548;51.196;6.838;2023-04-09T04:31:23;5.10;99.90
37702;DHT22;23548;51.196;6.838;2023-04-09T04:33:49;5.10;99.90
37702;DHT22;23548;51.196;6.838;2023-04-09T04:36:15;5.00;99.90
37702;DHT22;23548;51.196;6.838;2023-04-09T04:38:41;5.00;99.90
37702;DHT22;23548;51.196;6.838;2023-04-09T04:41:07;4.90;99.90
37702;DHT22;23548;51.196;6.838;2023-04-09T04:43:32;4.80;99.90
37702;DHT22;23548;51.196;6.838;2023-04-09T04:45:59;4.80;99.90
37702;DHT22;23548;51.196;6.838;2023-04-09T04:48:25;4.80;99.90
37702;DHT22;23548;51.196;6.838;2023-04-09T04:50:59;4.70;99.90
37702;DHT22;23548;51.196;6.838;2023-04-09T04:53:25;4.70;99.90
37702;DHT22;23548;51.196;6.838;2023-04-09T04:55:52;4.70;99.90
37702;DHT22;23548;51.196;6.838;2023-04-09T04:58:18;4.70;99.90
37702;DHT22;23548;51.196;6.838;2023-04-09T05:00:44;4.70;99.90
37702;DHT22;23548;51.196;6.838;2023-04-09T05:03:09;4.70;99.90
37702;DHT22;23548;51.196;6.838;2023-04-09T05:05:35;4.70;99.90
37702;DHT22;23548;51.196;6.838;2023-04-09T05:08:01;4.80;99.90
37702;DHT22;23548;51.196;6.838;2023-04-09T05:10:27;4.70;99.90
37702;DHT22;23548;51.196;6.838;2023-04-09T05:12:53;5.00;99.90
37702;DHT22;23548;51.196;6.838;2023-04-09T05:15:19;5.30;99.90
37702;DHT22;23548;51.196;6.838;2023-04-09T05:17:44;5.50;99.90
37702;DHT22;23548;51.196;6.838;2023-04-09T05:20:11;5.30;99.90
37702;DHT22;23548;51.196;6.838;2023-04-09T05:22:36;5.40;99.90
37702;DHT22;23548;51.196;6.838;2023-04-09T05:25:02;5.60;99.90
37702;DHT22;23548;51.196;6.838;2023-04-09T05:27:28;5.70;99.90
37702;DHT22;23548;51.196;6.838;2023-04-09T05:29:55;5.80;99.90
37702;DHT22;23548;51.196;6.838;2023-04-09T05:32:20;5.60;99.90
37702;DHT22;23548;51.196;6.838;2023-04-09T05:34:46;5.60;99.90
37702;DHT22;23548;51.196;6.838;2023-04-09T05:37:12;5.50;99.90
37702;DHT22;23548;51.196;6.838;2023-04-09T05:39:38;5.60;99.90
37702;DHT22;23548;51.196;6.838;2023-04-09T05:42:04;5.70;99.90
37702;DHT22;23548;51.196;6.838;2023-04-09T05:44:30;5.90;99.90
37702;DHT22;23548;51.196;6.838;2023-04-09T05:46:55;5.90;99.90
37702;DHT22;23548;51.196;6.838;2023-04-09T05:49:21;6.00;99.90
37702;DHT22;23548;51.196;6.838;2023-04-09T05:51:49;6.20;99.90
37702;DHT22;23548;51.196;6.838;2023-04-09T05:54:14;6.10;99.90
37702;DHT22;23548;51.196;6.838;2023-04-09T05:56:42;6.00;99.90
37702;DHT22;23548;51.196;6.838;2023-04-09T05:59:08;6.00;99.90
37702;DHT22;23548;51.196;6.838;2023-04-09T06:01:33;6.00;99.90
37702;DHT22;23548;51.196;6.838;2023-04-09T06:03:59;6.00;99.90
37702;DHT22;23548;51.196;6.838;2023-04-09T06:06:25;5.90;99.90
37702;DHT22;23548;51.196;6.838;2023-04-09T06:08:51;5.90;99.90
37702;DHT22;23548;51.196;6.838;2023-04-09T06:11:17;5.90;99.90
37702;DHT22;23548;51.196;6.838;2023-04-09T06:13:43;6.00;99.90
37702;DHT22;23548;51.196;6.838;2023-04-09T06:16:09;6.10;99.90
37702;DHT22;23548;51.196;6.838;2023-04-09T06:18:38;6.20;99.90
37702;DHT22;23548;51.196;6.838;2023-04-09T06:21:05;6.30;99.90
37702;DHT22;23548;51.196;6.838;2023-04-09T06:23:32;6.50;99.90
37702;DHT22;23548;51.196;6.838;2023-04-09T06:25:58;6.50;99.90
37702;DHT22;23548;51.196;6.838;2023-04-09T06:28:24;6.60;99.90
37702;DHT22;23548;51.196;6.838;2023-04-09T06:30:50;6.70;99.90
37702;DHT22;23548;51.196;6.838;2023-04-09T06:33:15;6.80;99.90
37702;DHT22;23548;51.196;6.838;2023-04-09T06:35:41;7.00;99.90
37702;DHT22;23548;51.196;6.838;2023-04-09T06:38:07;7.20;99.90
37702;DHT22;23548;51.196;6.838;2023-04-09T06:40:36;7.30;99.90
37702;DHT22;23548;51.196;6.838;2023-04-09T06:43:02;7.50;99.90
37702;DHT22;23548;51.196;6.838;2023-04-09T06:45:28;7.60;99.90
37702;DHT22;23548;51.196;6.838;2023-04-09T06:47:54;7.80;99.90
37702;DHT22;23548;51.196;6.838;2023-04-09T06:50:20;7.80;99.90
37702;DHT22;23548;51.196;6.838;2023-04-09T06:52:46;8.00;99.90
37702;DHT22;23548;51.196;6.838;2023-04-09T06:55:11;8.10;99.90
37702;DHT22;23548;51.196;6.838;2023-04-09T06:57:38;8.30;99.90
37702;DHT22;23548;51.196;6.838;2023-04-09T07:00:05;8.40;99.90
37702;DHT22;23548;51.196;6.838;2023-04-09T07:02:31;8.50;99.90
37702;DHT22;23548;51.196;6.838;2023-04-09T07:04:57;8.70;99.90
37702;DHT22;23548;51.196;6.838;2023-04-09T07:07:22;8.80;99.90
37702;DHT22;23548;51.196;6.838;2023-04-09T07:09:49;8.90;99.90
37702;DHT22;23548;51.196;6.838;2023-04-09T07:12:28;9.10;99.90
37702;DHT22;23548;51.196;6.838;2023-04-09T07:15:01;9.20;99.90
37702;DHT22;23548;51.196;6.838;2023-04-09T07:17:27;9.30;99.90
37702;DHT22;23548;51.196;6.838;2023-04-09T07:19:53;9.40;99.90
37702;DHT22;23548;51.196;6.838;2023-04-09T07:22:23;9.50;99.90
37702;DHT22;23548;51.196;6.838;2023-04-09T07:24:49;9.60;99.90
37702;DHT22;23548;51.196;6.838;2023-04-09T07:27:19;9.70;99.90
37702;DHT22;23548;51.196;6.838;2023-04-09T07:29:45;9.70;99.90
37702;DHT22;23548;51.196;6.838;2023-04-09T07:32:11;9.80;99.90
37702;DHT22;23548;51.196;6.838;2023-04-09T07:34:37;9.80;99.90
37702;DHT22;23548;51.196;6.838;2023-04-09T07:37:03;9.80;99.90
37702;DHT22;23548;51.196;6.838;2023-04-09T07:39:29;10.00;99.90
37702;DHT22;23548;51.196;6.838;2023-04-09T07:41:55;10.10;99.90
37702;DHT22;23548;51.196;6.838;2023-04-09T07:44:22;10.20;99.90
37702;DHT22;23548;51.196;6.838;2023-04-09T07:46:48;10.40;99.90
37702;DHT22;23548;51.196;6.838;2023-04-09T07:49:13;10.40;99.90
37702;DHT22;23548;51.196;6.838;2023-04-09T07:51:39;10.50;99.90
37702;DHT22;23548;51.196;6.838;2023-04-09T07:54:05;10.50;99.90
37702;DHT22;23548;51.196;6.838;2023-04-09T07:56:33;10.60;99.90
37702;DHT22;23548;51.196;6.838;2023-04-09T07:58:59;10.70;99.90
37702;DHT22;23548;51.196;6.838;2023-04-09T08:01:25;10.80;99.90
37702;DHT22;23548;51.196;6.838;2023-04-09T08:03:51;10.90;99.90
37702;DHT22;23548;51.196;6.838;2023-04-09T08:06:17;11.00;99.90
37702;DHT22;23548;51.196;6.838;2023-04-09T08:08:43;11.10;99.90
37702;DHT22;23548;51.196;6.838;2023-04-09T08:11:09;11.20;99.90
37702;DHT22;23548;51.196;6.838;2023-04-09T08:13:34;11.20;99.90
37702;DHT22;23548;51.196;6.838;2023-04-09T08:16:00;11.30;99.90
37702;DHT22;23548;51.196;6.838;2023-04-09T08:18:27;11.40;99.90
37702;DHT22;23548;51.196;6.838;2023-04-09T08:20:53;11.50;99.90
37702;DHT22;23548;51.196;6.838;2023-04-09T08:23:19;11.50;99.90
37702;DHT22;23548;51.196;6.838;2023-04-09T08:25:45;11.60;99.90
37702;DHT22;23548;51.196;6.838;2023-04-09T08:28:11;11.60;99.90
37702;DHT22;23548;51.196;6.838;2023-04-09T08:30:37;11.70;99.90
37702;DHT22;23548;51.196;6.838;2023-04-09T08:33:03;11.70;99.90
37702;DHT22;23548;51.196;6.838;2023-04-09T08:35:31;11.90;99.90
37702;DHT22;23548;51.196;6.838;2023-04-09T08:37:58;11.90;99.90
37702;DHT22;23548;51.196;6.838;2023-04-09T08:40:24;11.90;99.90
37702;DHT22;23548;51.196;6.838;2023-04-09T08:42:54;12.00;99.90
37702;DHT22;23548;51.196;6.838;2023-04-09T08:45:23;12.00;99.90
37702;DHT22;23548;51.196;6.838;2023-04-09T08:47:50;12.10;99.90
37702;DHT22;23548;51.196;6.838;2023-04-09T08:50:16;12.10;99.90
37702;DHT22;23548;51.196;6.838;2023-04-09T08:52:45;12.00;99.90
37702;DHT22;23548;51.196;6.838;2023-04-09T08:55:12;11.80;99.90
37702;DHT22;23548;51.196;6.838;2023-04-09T08:57:38;11.80;99.90
37702;DHT22;23548;51.196;6.838;2023-04-09T09:00:05;11.90;99.90
37702;DHT22;23548;51.196;6.838;2023-04-09T09:02:31;12.00;99.90
37702;DHT22;23548;51.196;6.838;2023-04-09T09:04:57;12.10;99.90
37702;DHT22;23548;51.196;6.838;2023-04-09T09:07:27;12.10;99.90
37702;DHT22;23548;51.196;6.838;2023-04-09T09:09:58;11.90;99.90
37702;DHT22;23548;51.196;6.838;2023-04-09T09:14:56;12.00;99.90
37702;DHT22;23548;51.196;6.838;2023-04-09T09:17:22;12.00;99.90
37702;DHT22;23548;51.196;6.838;2023-04-09T09:19:47;12.20;99.90
37702;DHT22;23548;51.196;6.838;2023-04-09T09:22:13;12.50;99.90
37702;DHT22;23548;51.196;6.838;2023-04-09T09:24:49;12.60;99.90
37702;DHT22;23548;51.196;6.838;2023-04-09T09:27:35;12.80;99.90
37702;DHT22;23548;51.196;6.838;2023-04-09T09:30:04;13.00;99.90
37702;DHT22;23548;51.196;6.838;2023-04-09T09:32:31;13.00;99.90
37702;DHT22;23548;51.196;6.838;2023-04-09T09:35:02;13.20;99.90
37702;DHT22;23548;51.196;6.838;2023-04-09T09:37:29;13.30;99.90
37702;DHT22;23548;51.196;6.838;2023-04-09T09:39:57;13.10;99.90
37702;DHT22;23548;51.196;6.838;2023-04-09T09:42:23;13.20;99.90
37702;DHT22;23548;51.196;6.838;2023-04-09T09:44:49;13.20;99.90
37702;DHT22;23548;51.196;6.838;2023-04-09T09:47:19;13.30;99.90
37702;DHT22;23548;51.196;6.838;2023-04-09T09:49:49;13.50;99.90
37702;DHT22;23548;51.196;6.838;2023-04-09T09:52:19;13.60;99.90
37702;DHT22;23548;51.196;6.838;2023-04-09T09:54:47;13.30;99.90
37702;DHT22;23548;51.196;6.838;2023-04-09T09:57:18;13.10;99.90
37702;DHT22;23548;51.196;6.838;2023-04-09T09:59:57;13.20;99.90
37702;DHT22;23548;51.196;6.838;2023-04-09T10:02:27;13.50;99.90
37702;DHT22;23548;51.196;6.838;2023-04-09T10:04:59;13.50;99.90
37702;DHT22;23548;51.196;6.838;2023-04-09T10:07:25;13.80;99.90
37702;DHT22;23548;51.196;6.838;2023-04-09T10:09:53;14.00;99.90
37702;DHT22;23548;51.196;6.838;2023-04-09T10:12:22;13.90;99.90
37702;DHT22;23548;51.196;6.838;2023-04-09T10:14:50;14.00;99.90
37702;DHT22;23548;51.196;6.838;2023-04-09T10:17:18;14.30;99.90
37702;DHT22;23548;51.196;6.838;2023-04-09T10:20:18;14.30;99.90
37702;DHT22;23548;51.196;6.838;2023-04-09T10:22:49;14.10;99.90
37702;DHT22;23548;51.196;6.838;2023-04-09T10:25:16;14.10;99.90
37702;DHT22;23548;51.196;6.838;2023-04-09T10:27:43;14.10;99.90
37702;DHT22;23548;51.196;6.838;2023-04-09T10:30:35;14.30;99.90
37702;DHT22;23548;51.196;6.838;2023-04-09T10:33:15;14.60;99.90
37702;DHT22;23548;51.196;6.838;2023-04-09T10:35:45;14.90;99.90
37702;DHT22;23548;51.196;6.838;2023-04-09T10:38:13;15.30;99.90
37702;DHT22;23548;51.196;6.838;2023-04-09T10:40:49;15.20;99.90
37702;DHT22;23548;51.196;6.838;2023-04-09T10:43:18;14.90;99.90
37702;DHT22;23548;51.196;6.838;2023-04-09T10:45:45;15.00;99.90
37702;DHT22;23548;51.196;6.838;2023-04-09T10:48:19;15.20;99.90
37702;DHT22;23548;51.196;6.838;2023-04-09T10:50:49;15.30;99.90
37702;DHT22;23548;51.196;6.838;2023-04-09T10:53:24;15.60;99.90
37702;DHT22;23548;51.196;6.838;2023-04-09T10:55:51;15.70;99.90
37702;DHT22;23548;51.196;6.838;2023-04-09T10:58:18;16.00;99.90
37702;DHT22;23548;51.196;6.838;2023-04-09T11:00:46;16.00;99.70
37702;DHT22;23548;51.196;6.838;2023-04-09T11:03:22;15.70;98.20
37702;DHT22;23548;51.196;6.838;2023-04-09T11:06:07;16.10;99.90
37702;DHT22;23548;51.196;6.838;2023-04-09T11:08:35;16.30;99.70
37702;DHT22;23548;51.196;6.838;2023-04-09T11:11:03;16.10;97.80
37702;DHT22;23548;51.196;6.838;2023-04-09T11:13:30;15.60;97.70
37702;DHT22;23548;51.196;6.838;2023-04-09T11:15:58;15.50;98.20
37702;DHT22;23548;51.196;6.838;2023-04-09T11:18:28;15.60;98.30
37702;DHT22;23548;51.196;6.838;2023-04-09T11:21:00;15.70;97.90
37702;DHT22;23548;51.196;6.838;2023-04-09T11:23:28;16.00;97.40
37702;DHT22;23548;51.196;6.838;2023-04-09T11:25:54;16.60;97.00
37702;DHT22;23548;51.196;6.838;2023-04-09T11:28:23;17.30;97.60
37702;DHT22;23548;51.196;6.838;2023-04-09T11:30:50;17.60;95.40
37702;DHT22;23548;51.196;6.838;2023-04-09T11:33:16;17.30;94.20
37702;DHT22;23548;51.196;6.838;2023-04-09T11:35:42;17.30;95.10
37702;DHT22;23548;51.196;6.838;2023-04-09T11:38:09;16.90;93.90
37702;DHT22;23548;51.196;6.838;2023-04-09T11:40:38;15.90;94.40
37702;DHT22;23548;51.196;6.838;2023-04-09T11:43:10;16.00;95.00
37702;DHT22;23548;51.196;6.838;2023-04-09T11:45:36;16.40;95.90
37702;DHT22;23548;51.196;6.838;2023-04-09T11:48:03;16.70;96.30
37702;DHT22;23548;51.196;6.838;2023-04-09T11:50:30;16.80;95.70
37702;DHT22;23548;51.196;6.838;2023-04-09T11:52:57;16.50;94.30
37702;DHT22;23548;51.196;6.838;2023-04-09T11:55:24;16.00;96.10
37702;DHT22;23548;51.196;6.838;2023-04-09T11:57:53;16.10;95.40
37702;DHT22;23548;51.196;6.838;2023-04-09T12:00:19;15.50;95.20
37702;DHT22;23548;51.196;6.838;2023-04-09T12:02:49;15.20;97.60
37702;DHT22;23548;51.196;6.838;2023-04-09T12:07:50;16.10;97.20
37702;DHT22;23548;51.196;6.838;2023-04-09T12:10:16;16.60;95.50
37702;DHT22;23548;51.196;6.838;2023-04-09T12:12:46;15.70;95.70
37702;DHT22;23548;51.196;6.838;2023-04-09T12:15:19;15.30;96.30
37702;DHT22;23548;51.196;6.838;2023-04-09T12:17:56;15.20;96.60
37702;DHT22;23548;51.196;6.838;2023-04-09T12:20:50;15.20;96.90
37702;DHT22;23548;51.196;6.838;2023-04-09T12:23:16;15.20;96.10
37702;DHT22;23548;51.196;6.838;2023-04-09T12:25:43;15.70;96.10
37702;DHT22;23548;51.196;6.838;2023-04-09T12:28:14;16.20;96.90
37702;DHT22;23548;51.196;6.838;2023-04-09T12:30:42;15.60;95.90
37702;DHT22;23548;51.196;6.838;2023-04-09T12:33:09;15.90;96.20
37702;DHT22;23548;51.196;6.838;2023-04-09T12:35:35;15.90;95.60
37702;DHT22;23548;51.196;6.838;2023-04-09T12:38:02;16.30;95.00
37702;DHT22;23548;51.196;6.838;2023-04-09T12:40:29;16.50;94.40
37702;DHT22;23548;51.196;6.838;2023-04-09T12:42:55;16.60;94.20
37702;DHT22;23548;51.196;6.838;2023-04-09T12:45:22;16.80;95.10
37702;DHT22;23548;51.196;6.838;2023-04-09T12:47:48;16.80;95.40
37702;DHT22;23548;51.196;6.838;2023-04-09T12:50:14;17.40;95.10
37702;DHT22;23548;51.196;6.838;2023-04-09T12:52:40;17.60;93.50
37702;DHT22;23548;51.196;6.838;2023-04-09T12:55:07;17.90;92.30
37702;DHT22;23548;51.196;6.838;2023-04-09T12:57:33;18.00;91.30
37702;DHT22;23548;51.196;6.838;2023-04-09T13:00:00;18.00;93.00
37702;DHT22;23548;51.196;6.838;2023-04-09T13:02:25;18.30;91.20
37702;DHT22;23548;51.196;6.838;2023-04-09T13:04:52;17.70;91.80
37702;DHT22;23548;51.196;6.838;2023-04-09T13:07:18;18.00;92.70
37702;DHT22;23548;51.196;6.838;2023-04-09T13:09:44;18.20;92.50
37702;DHT22;23548;51.196;6.838;2023-04-09T13:12:11;18.10;90.10
37702;DHT22;23548;51.196;6.838;2023-04-09T13:14:42;18.30;89.30
37702;DHT22;23548;51.196;6.838;2023-04-09T13:17:08;18.50;91.50
37702;DHT22;23548;51.196;6.838;2023-04-09T13:19:33;18.50;89.30
37702;DHT22;23548;51.196;6.838;2023-04-09T13:22:02;18.00;88.10
37702;DHT22;23548;51.196;6.838;2023-04-09T13:24:32;17.20;89.00
37702;DHT22;23548;51.196;6.838;2023-04-09T13:26:59;17.70;89.40
37702;DHT22;23548;51.196;6.838;2023-04-09T13:29:25;17.30;87.40
37702;DHT22;23548;51.196;6.838;2023-04-09T13:31:54;16.70;88.60
37702;DHT22;23548;51.196;6.838;2023-04-09T13:34:21;16.30;90.10
37702;DHT22;23548;51.196;6.838;2023-04-09T13:36:46;16.30;90.60
37702;DHT22;23548;51.196;6.838;2023-04-09T13:39:12;16.10;91.00
37702;DHT22;23548;51.196;6.838;2023-04-09T13:41:38;16.10;90.80
37702;DHT22;23548;51.196;6.838;2023-04-09T13:44:04;16.20;90.40
37702;DHT22;23548;51.196;6.838;2023-04-09T13:46:30;17.30;90.30
37702;DHT22;23548;51.196;6.838;2023-04-09T13:48:56;17.90;86.80
37702;DHT22;23548;51.196;6.838;2023-04-09T13:51:22;19.50;89.50
37702;DHT22;23548;51.196;6.838;2023-04-09T13:53:48;21.80;81.90
37702;DHT22;23548;51.196;6.838;2023-04-09T13:56:15;23.00;74.50
37702;DHT22;23548;51.196;6.838;2023-04-09T13:58:41;22.30;71.50
37702;DHT22;23548;51.196;6.838;2023-04-09T14:01:08;22.70;65.60
37702;DHT22;23548;51.196;6.838;2023-04-09T14:03:34;22.60;67.80
37702;DHT22;23548;51.196;6.838;2023-04-09T14:06:02;23.90;64.30
37702;DHT22;23548;51.196;6.838;2023-04-09T14:08:28;24.40;59.50
37702;DHT22;23548;51.196;6.838;2023-04-09T14:10:54;26.10;55.80
37702;DHT22;23548;51.196;6.838;2023-04-09T14:13:21;26.00;51.50
37702;DHT22;23548;51.196;6.838;2023-04-09T14:15:47;24.90;52.30
37702;DHT22;23548;51.196;6.838;2023-04-09T14:18:14;24.60;52.70
37702;DHT22;23548;51.196;6.838;2023-04-09T14:20:40;25.80;51.70
37702;DHT22;23548;51.196;6.838;2023-04-09T14:23:06;26.60;52.10
37702;DHT22;23548;51.196;6.838;2023-04-09T14:25:32;27.10;46.60
37702;DHT22;23548;51.196;6.838;2023-04-09T14:27:58;26.70;48.00
37702;DHT22;23548;51.196;6.838;2023-04-09T14:30:23;26.70;46.50
37702;DHT22;23548;51.196;6.838;2023-04-09T14:32:49;27.30;48.10
37702;DHT22;23548;51.196;6.838;2023-04-09T14:35:15;27.50;45.90
37702;DHT22;23548;51.196;6.838;2023-04-09T14:37:41;27.20;45.00
37702;DHT22;23548;51.196;6.838;2023-04-09T14:40:07;26.60;44.60
37702;DHT22;23548;51.196;6.838;2023-04-09T14:42:33;26.20;45.10
37702;DHT22;23548;51.196;6.838;2023-04-09T14:44:59;25.60;45.70
37702;DHT22;23548;51.196;6.838;2023-04-09T14:47:25;23.30;49.40
37702;DHT22;23548;51.196;6.838;2023-04-09T14:49:51;24.90;50.00
37702;DHT22;23548;51.196;6.838;2023-04-09T14:52:16;24.80;49.20
37702;DHT22;23548;51.196;6.838;2023-04-09T14:54:42;26.40;45.30
37702;DHT22;23548;51.196;6.838;2023-04-09T14:57:08;26.50;46.60
37702;DHT22;23548;51.196;6.838;2023-04-09T14:59:34;24.30;48.00
37702;DHT22;23548;51.196;6.838;2023-04-09T15:02:00;22.20;49.20
37702;DHT22;23548;51.196;6.838;2023-04-09T15:04:26;19.30;55.30
37702;DHT22;23548;51.196;6.838;2023-04-09T15:06:52;19.00;56.40
37702;DHT22;23548;51.196;6.838;2023-04-09T15:09:17;18.50;57.50
37702;DHT22;23548;51.196;6.838;2023-04-09T15:11:43;17.60;59.30
37702;DHT22;23548;51.196;6.838;2023-04-09T15:14:09;18.30;61.10
37702;DHT22;23548;51.196;6.838;2023-04-09T15:16:35;20.30;57.00
37702;DHT22;23548;51.196;6.838;2023-04-09T15:19:04;22.90;53.10
37702;DHT22;23548;51.196;6.838;2023-04-09T15:21:30;24.70;50.00
37702;DHT22;23548;51.196;6.838;2023-04-09T15:23:59;26.10;46.60
37702;DHT22;23548;51.196;6.838;2023-04-09T15:26:25;25.70;46.60
37702;DHT22;23548;51.196;6.838;2023-04-09T15:28:54;26.10;45.70
37702;DHT22;23548;51.196;6.838;2023-04-09T15:31:22;26.30;43.70
37702;DHT22;23548;51.196;6.838;2023-04-09T15:33:48;25.30;44.50
37702;DHT22;23548;51.196;6.838;2023-04-09T15:36:14;26.90;44.10
37702;DHT22;23548;51.196;6.838;2023-04-09T15:38:40;27.30;44.10
37702;DHT22;23548;51.196;6.838;2023-04-09T15:41:06;24.20;46.30
37702;DHT22;23548;51.196;6.838;2023-04-09T15:43:32;24.80;45.00
37702;DHT22;23548;51.196;6.838;2023-04-09T15:45:58;25.60;44.60
37702;DHT22;23548;51.196;6.838;2023-04-09T15:48:24;25.50;44.90
37702;DHT22;23548;51.196;6.838;2023-04-09T15:50:50;25.20;43.80
37702;DHT22;23548;51.196;6.838;2023-04-09T15:53:15;25.10;45.30
37702;DHT22;23548;51.196;6.838;2023-04-09T15:55:42;22.20;48.00
37702;DHT22;23548;51.196;6.838;2023-04-09T15:58:07;20.20;53.80
37702;DHT22;23548;51.196;6.838;2023-04-09T16:00:33;20.10;53.80